sensor_id;sensor_type;location;lat;lon;timestamp;pressure;altitude;pressure_sealevel;temperature;humidity
57452;BME280;66031;51.224;-0.164;2022-12-18T00:00:49;101494.89;;;13.58;27.78
57452;BME280;66031;51.224;-0.164;2022-12-18T00:03:14;101493.62;;;14.10;27.47
57452;BME280;66031;51.224;-0.164;2022-12-18T00:05:46;101496.60;;;14.15;27.63
57452;BME280;66031;51.224;-0.164;2022-12-18T00:08:04;101483.82;;;14.12;27.66
57452;BME280;66031;51.224;-0.164;2022-12-18T00:10:29;101477.08;;;14.31;27.66
57452;BME280;66031;51.224;-0.164;2022-12-18T00:12:54;101474.51;;;14.06;27.66
57452;BME280;66031;51.224;-0.164;2022-12-18T00:15:20;101469.09;;;13.98;27.68
57452;BME280;66031;51.224;-0.164;2022-12-18T00:17:46;101463.53;;;13.93;27.73
57452;BME280;66031;51.224;-0.164;2022-12-18T00:20:11;101457.35;;;13.91;27.73
57452;BME280;66031;51.224;-0.164;2022-12-18T00:22:36;101454.41;;;13.90;27.72
57452;BME280;66031;51.224;-0.164;2022-12-18T00:25:01;101458.12;;;13.90;27.69
57452;BME280;66031;51.224;-0.164;2022-12-18T00:27:26;101458.47;;;14.02;27.82
57452;BME280;66031;51.224;-0.164;2022-12-18T00:29:52;101460.12;;;13.78;27.80
57452;BME280;66031;51.224;-0.164;2022-12-18T00:32:17;101469.87;;;13.72;27.88
57452;BME280;66031;51.224;-0.164;2022-12-18T00:34:43;101464.73;;;13.87;27.91
57452;BME280;66031;51.224;-0.164;2022-12-18T00:37:08;101464.07;;;13.72;27.81
57452;BME280;66031;51.224;-0.164;2022-12-18T00:39:33;101458.74;;;13.69;27.90
57452;BME280;66031;51.224;-0.164;2022-12-18T00:41:59;101454.98;;;13.37;27.92
57452;BME280;66031;51.224;-0.164;2022-12-18T00:44:24;101455.17;;;13.60;27.90
57452;BME280;66031;51.224;-0.164;2022-12-18T00:46:50;101451.09;;;13.54;27.96
57452;BME280;66031;51.224;-0.164;2022-12-18T00:49:16;101444.62;;;13.79;27.94
57452;BME280;66031;51.224;-0.164;2022-12-18T00:51:41;101445.55;;;13.48;27.94
57452;BME280;66031;51.224;-0.164;2022-12-18T00:54:07;101449.81;;;13.69;27.98
57452;BME280;66031;51.224;-0.164;2022-12-18T00:56:32;101446.35;;;13.67;27.98
57452;BME280;66031;51.224;-0.164;2022-12-18T00:58:58;101443.42;;;13.41;28.00
57452;BME280;66031;51.224;-0.164;2022-12-18T01:01:23;101439.70;;;13.63;28.02
57452;BME280;66031;51.224;-0.164;2022-12-18T01:03:48;101436.02;;;13.59;28.04
57452;BME280;66031;51.224;-0.164;2022-12-18T01:06:15;101436.02;;;13.34;28.04
57452;BME280;66031;51.224;-0.164;2022-12-18T01:08:39;101435.90;;;13.70;27.93
57452;BME280;66031;51.224;-0.164;2022-12-18T01:11:08;101432.93;;;13.65;27.95
57452;BME280;66031;51.224;-0.164;2022-12-18T01:13:29;101424.94;;;13.34;28.00
57452;BME280;66031;51.224;-0.164;2022-12-18T01:15:54;101417.22;;;13.54;28.04
57452;BME280;66031;51.224;-0.164;2022-12-18T01:18:20;101407.67;;;13.53;28.02
57452;BME280;66031;51.224;-0.164;2022-12-18T01:20:46;101402.95;;;13.33;27.99
57452;BME280;66031;51.224;-0.164;2022-12-18T01:23:11;101400.87;;;13.48;28.02
57452;BME280;66031;51.224;-0.164;2022-12-18T01:25:37;101406.21;;;13.45;28.06
57452;BME280;66031;51.224;-0.164;2022-12-18T01:28:02;101410.78;;;13.42;28.09
57452;BME280;66031;51.224;-0.164;2022-12-18T01:30:28;101409.72;;;13.40;28.08
57452;BME280;66031;51.224;-0.164;2022-12-18T01:32:53;101406.91;;;13.40;28.09
57452;BME280;66031;51.224;-0.164;2022-12-18T01:35:19;101406.00;;;13.36;28.10
57452;BME280;66031;51.224;-0.164;2022-12-18T01:37:43;101401.10;;;13.34;28.11
57452;BME280;66031;51.224;-0.164;2022-12-18T01:40:09;101394.03;;;13.38;28.08
57452;BME280;66031;51.224;-0.164;2022-12-18T01:42:34;101388.62;;;13.33;28.10
57452;BME280;66031;51.224;-0.164;2022-12-18T01:45:04;101379.31;;;13.29;28.12
57452;BME280;66031;51.224;-0.164;2022-12-18T01:47:28;101377.53;;;13.26;28.16
57452;BME280;66031;51.224;-0.164;2022-12-18T01:49:51;101379.37;;;13.25;28.15
57452;BME280;66031;51.224;-0.164;2022-12-18T01:52:17;101380.77;;;13.26;28.12
57452;BME280;66031;51.224;-0.164;2022-12-18T01:54:41;101374.86;;;13.22;28.17
57452;BME280;66031;51.224;-0.164;2022-12-18T01:57:07;101373.98;;;13.18;28.18
57452;BME280;66031;51.224;-0.164;2022-12-18T01:59:32;101369.70;;;13.16;28.21
57452;BME280;66031;51.224;-0.164;2022-12-18T02:01:57;101372.37;;;13.40;28.20
57452;BME280;66031;51.224;-0.164;2022-12-18T02:04:25;101375.75;;;13.11;28.21
57452;BME280;66031;51.224;-0.164;2022-12-18T02:06:50;101378.68;;;13.16;28.17
57452;BME280;66031;51.224;-0.164;2022-12-18T02:09:16;101379.90;;;13.18;28.13
57452;BME280;66031;51.224;-0.164;2022-12-18T02:11:44;101388.11;;;13.14;28.16
57452;BME280;66031;51.224;-0.164;2022-12-18T02:14:11;101393.90;;;13.10;28.20
57452;BME280;66031;51.224;-0.164;2022-12-18T02:16:34;101397.11;;;13.12;28.16
57452;BME280;66031;51.224;-0.164;2022-12-18T02:18:57;101400.00;;;13.10;28.17
57452;BME280;66031;51.224;-0.164;2022-12-18T02:21:28;101400.61;;;13.12;28.13
57452;BME280;66031;51.224;-0.164;2022-12-18T02:23:50;101401.19;;;13.10;28.14
57452;BME280;66031;51.224;-0.164;2022-12-18T02:26:19;101403.13;;;13.07;28.17
57452;BME280;66031;51.224;-0.164;2022-12-18T02:28:40;101405.20;;;13.04;28.20
57452;BME280;66031;51.224;-0.164;2022-12-18T02:31:05;101406.70;;;13.02;28.20
57452;BME280;66031;51.224;-0.164;2022-12-18T02:33:27;101401.09;;;12.98;28.23
57452;BME280;66031;51.224;-0.164;2022-12-18T02:35:54;101407.44;;;12.99;28.18
57452;BME280;66031;51.224;-0.164;2022-12-18T02:38:18;101409.95;;;12.97;28.18
57452;BME280;66031;51.224;-0.164;2022-12-18T02:40:44;101408.71;;;12.97;28.20
57452;BME280;66031;51.224;-0.164;2022-12-18T02:43:12;101409.82;;;12.91;28.28
57452;BME280;66031;51.224;-0.164;2022-12-18T02:45:35;101406.30;;;12.90;28.24
57452;BME280;66031;51.224;-0.164;2022-12-18T02:48:01;101405.81;;;12.88;28.27
57452;BME280;66031;51.224;-0.164;2022-12-18T02:50:32;101409.96;;;12.86;28.24
57452;BME280;66031;51.224;-0.164;2022-12-18T02:52:59;101413.16;;;12.86;28.27
57452;BME280;66031;51.224;-0.164;2022-12-18T02:55:25;101414.85;;;12.80;28.29
57452;BME280;66031;51.224;-0.164;2022-12-18T02:57:45;101417.80;;;12.86;28.23
57452;BME280;66031;51.224;-0.164;2022-12-18T03:00:10;101413.93;;;13.03;28.26
57452;BME280;66031;51.224;-0.164;2022-12-18T03:02:38;101407.48;;;12.78;28.28
57452;BME280;66031;51.224;-0.164;2022-12-18T03:05:03;101400.80;;;12.82;28.24
57452;BME280;66031;51.224;-0.164;2022-12-18T03:07:27;101395.65;;;12.81;28.22
57452;BME280;66031;51.224;-0.164;2022-12-18T03:09:50;101389.24;;;12.77;28.22
57452;BME280;66031;51.224;-0.164;2022-12-18T03:12:17;101379.36;;;12.85;28.14
57452;BME280;66031;51.224;-0.164;2022-12-18T03:14:40;101376.46;;;13.29;28.16
57452;BME280;66031;51.224;-0.164;2022-12-18T03:17:09;101376.52;;;12.76;28.21
57452;BME280;66031;51.224;-0.164;2022-12-18T03:19:32;101372.58;;;12.80;28.16
57452;BME280;66031;51.224;-0.164;2022-12-18T03:21:56;101369.17;;;12.76;28.18
57452;BME280;66031;51.224;-0.164;2022-12-18T03:24:22;101364.53;;;12.94;28.25
57452;BME280;66031;51.224;-0.164;2022-12-18T03:26:48;101363.71;;;12.90;28.29
57452;BME280;66031;51.224;-0.164;2022-12-18T03:29:17;101364.63;;;12.63;28.28
57452;BME280;66031;51.224;-0.164;2022-12-18T03:31:37;101364.93;;;12.88;28.26
57452;BME280;66031;51.224;-0.164;2022-12-18T03:34:04;101361.38;;;12.66;28.26
57452;BME280;66031;51.224;-0.164;2022-12-18T03:36:31;101361.42;;;12.87;28.27
57452;BME280;66031;51.224;-0.164;2022-12-18T03:38:52;101354.78;;;12.62;28.28
57452;BME280;66031;51.224;-0.164;2022-12-18T03:41:22;101348.27;;;12.84;28.29
57452;BME280;66031;51.224;-0.164;2022-12-18T03:43:48;101347.76;;;12.56;28.35
57452;BME280;66031;51.224;-0.164;2022-12-18T03:46:14;101346.11;;;12.55;28.34
57452;BME280;66031;51.224;-0.164;2022-12-18T03:48:37;101343.18;;;12.54;28.34
57452;BME280;66031;51.224;-0.164;2022-12-18T03:51:01;101339.90;;;13.00;28.37
57452;BME280;66031;51.224;-0.164;2022-12-18T03:53:30;101333.64;;;12.73;28.35
57452;BME280;66031;51.224;-0.164;2022-12-18T03:55:51;101334.69;;;12.52;28.32
57452;BME280;66031;51.224;-0.164;2022-12-18T03:58:18;101330.25;;;12.75;28.38
57452;BME280;66031;51.224;-0.164;2022-12-18T04:00:41;101329.52;;;12.49;28.35
57452;BME280;66031;51.224;-0.164;2022-12-18T04:03:07;101333.26;;;12.72;28.39
57452;BME280;66031;51.224;-0.164;2022-12-18T04:05:33;101337.26;;;12.71;28.41
57452;BME280;66031;51.224;-0.164;2022-12-18T04:07:57;101330.84;;;12.53;28.29
57452;BME280;66031;51.224;-0.164;2022-12-18T04:10:22;101324.14;;;12.49;28.39
57452;BME280;66031;51.224;-0.164;2022-12-18T04:12:47;101317.46;;;12.69;28.36
57452;BME280;66031;51.224;-0.164;2022-12-18T04:15:13;101314.30;;;12.42;28.38
57452;BME280;66031;51.224;-0.164;2022-12-18T04:17:38;101317.44;;;12.65;28.41
57452;BME280;66031;51.224;-0.164;2022-12-18T04:20:04;101316.71;;;12.94;28.35
57452;BME280;66031;51.224;-0.164;2022-12-18T04:22:29;101315.20;;;12.65;28.45
57452;BME280;66031;51.224;-0.164;2022-12-18T04:24:54;101317.37;;;12.59;28.44
57452;BME280;66031;51.224;-0.164;2022-12-18T04:27:19;101324.13;;;12.60;28.44
57452;BME280;66031;51.224;-0.164;2022-12-18T04:29:45;101323.98;;;12.38;28.44
57452;BME280;66031;51.224;-0.164;2022-12-18T04:32:10;101319.31;;;12.58;28.48
57452;BME280;66031;51.224;-0.164;2022-12-18T04:34:35;101317.94;;;12.55;28.46
57452;BME280;66031;51.224;-0.164;2022-12-18T04:37:00;101314.51;;;12.55;28.48
57452;BME280;66031;51.224;-0.164;2022-12-18T04:39:25;101317.54;;;12.80;28.45
57452;BME280;66031;51.224;-0.164;2022-12-18T04:41:50;101321.45;;;12.58;28.47
57452;BME280;66031;51.224;-0.164;2022-12-18T04:44:15;101312.50;;;12.53;28.55
57452;BME280;66031;51.224;-0.164;2022-12-18T04:46:41;101305.54;;;12.48;28.54
57452;BME280;66031;51.224;-0.164;2022-12-18T04:49:06;101304.55;;;12.26;28.55
57452;BME280;66031;51.224;-0.164;2022-12-18T04:51:32;101296.88;;;12.75;28.56
57452;BME280;66031;51.224;-0.164;2022-12-18T04:53:57;101297.68;;;12.17;28.58
57452;BME280;66031;51.224;-0.164;2022-12-18T04:56:23;101292.52;;;12.53;28.50
57452;BME280;66031;51.224;-0.164;2022-12-18T04:58:48;101283.47;;;12.50;28.53
57452;BME280;66031;51.224;-0.164;2022-12-18T05:01:16;101280.77;;;12.52;28.52
57452;BME280;66031;51.224;-0.164;2022-12-18T05:03:40;101274.24;;;12.46;28.59
57452;BME280;66031;51.224;-0.164;2022-12-18T05:06:06;101269.96;;;12.22;28.57
57452;BME280;66031;51.224;-0.164;2022-12-18T05:08:30;101270.97;;;12.54;28.52
57452;BME280;66031;51.224;-0.164;2022-12-18T05:10:59;101269.66;;;12.53;28.50
57452;BME280;66031;51.224;-0.164;2022-12-18T05:13:21;101263.79;;;12.67;28.58
57452;BME280;66031;51.224;-0.164;2022-12-18T05:15:51;101261.40;;;12.46;28.60
57452;BME280;66031;51.224;-0.164;2022-12-18T05:18:11;101251.86;;;12.50;28.57
57452;BME280;66031;51.224;-0.164;2022-12-18T05:20:36;101253.76;;;12.47;28.56
57452;BME280;66031;51.224;-0.164;2022-12-18T05:23:02;101250.58;;;12.22;28.67
57452;BME280;66031;51.224;-0.164;2022-12-18T05:25:27;101246.55;;;12.40;28.66
57452;BME280;66031;51.224;-0.164;2022-12-18T05:27:53;101240.97;;;12.61;28.73
57452;BME280;66031;51.224;-0.164;2022-12-18T05:30:18;101241.62;;;12.37;28.71
57452;BME280;66031;51.224;-0.164;2022-12-18T05:32:43;101236.91;;;12.14;28.70
57452;BME280;66031;51.224;-0.164;2022-12-18T05:35:10;101235.19;;;12.63;28.73
57452;BME280;66031;51.224;-0.164;2022-12-18T05:37:34;101233.26;;;12.57;28.73
57452;BME280;66031;51.224;-0.164;2022-12-18T05:40:00;101234.53;;;12.62;28.70
57452;BME280;66031;51.224;-0.164;2022-12-18T05:42:25;101230.06;;;12.59;28.72
57452;BME280;66031;51.224;-0.164;2022-12-18T05:44:51;101223.80;;;12.57;28.79
57452;BME280;66031;51.224;-0.164;2022-12-18T05:47:16;101226.33;;;12.55;28.85
57452;BME280;66031;51.224;-0.164;2022-12-18T05:49:42;101223.34;;;12.29;28.84
57452;BME280;66031;51.224;-0.164;2022-12-18T05:52:06;101219.09;;;12.30;28.85
57452;BME280;66031;51.224;-0.164;2022-12-18T05:54:32;101211.44;;;12.29;28.84
57452;BME280;66031;51.224;-0.164;2022-12-18T05:56:57;101201.12;;;12.56;28.78
57452;BME280;66031;51.224;-0.164;2022-12-18T05:59:23;101200.84;;;12.55;28.74
57452;BME280;66031;51.224;-0.164;2022-12-18T06:01:48;101196.92;;;12.54;28.81
57452;BME280;66031;51.224;-0.164;2022-12-18T06:04:14;101198.91;;;12.05;28.85
57452;BME280;66031;51.224;-0.164;2022-12-18T06:06:39;101196.81;;;12.55;28.86
57452;BME280;66031;51.224;-0.164;2022-12-18T06:09:04;101193.09;;;12.61;28.74
57452;BME280;66031;51.224;-0.164;2022-12-18T06:11:29;101182.74;;;12.08;28.76
57452;BME280;66031;51.224;-0.164;2022-12-18T06:13:56;101174.69;;;12.29;28.81
57452;BME280;66031;51.224;-0.164;2022-12-18T06:16:20;101172.04;;;12.47;28.87
57452;BME280;66031;51.224;-0.164;2022-12-18T06:18:45;101166.83;;;12.06;28.85
57452;BME280;66031;51.224;-0.164;2022-12-18T06:21:11;101165.89;;;12.07;28.81
57452;BME280;66031;51.224;-0.164;2022-12-18T06:23:36;101158.78;;;12.25;28.87
57452;BME280;66031;51.224;-0.164;2022-12-18T06:26:04;101147.54;;;12.53;28.76
57452;BME280;66031;51.224;-0.164;2022-12-18T06:28:27;101139.83;;;12.05;28.79
57452;BME280;66031;51.224;-0.164;2022-12-18T06:30:52;101129.22;;;12.47;28.88
57452;BME280;66031;51.224;-0.164;2022-12-18T06:33:18;101118.59;;;12.48;28.77
57452;BME280;66031;51.224;-0.164;2022-12-18T06:35:43;101116.63;;;11.97;28.80
57452;BME280;66031;51.224;-0.164;2022-12-18T06:38:08;101117.24;;;12.48;28.80
57452;BME280;66031;51.224;-0.164;2022-12-18T06:40:34;101115.89;;;12.77;28.56
57452;BME280;66031;51.224;-0.164;2022-12-18T06:42:59;101118.42;;;12.81;28.38
57452;BME280;66031;51.224;-0.164;2022-12-18T06:45:25;101123.34;;;13.25;28.08
57452;BME280;66031;51.224;-0.164;2022-12-18T06:47:50;101125.23;;;13.26;27.96
57452;BME280;66031;51.224;-0.164;2022-12-18T06:50:16;101122.87;;;13.46;27.87
57452;BME280;66031;51.224;-0.164;2022-12-18T06:52:41;101123.00;;;13.55;27.87
57452;BME280;66031;51.224;-0.164;2022-12-18T06:55:10;101124.24;;;13.65;27.68
57452;BME280;66031;51.224;-0.164;2022-12-18T06:57:32;101122.30;;;14.00;27.69
57452;BME280;66031;51.224;-0.164;2022-12-18T06:59:57;101120.98;;;13.95;27.64
57452;BME280;66031;51.224;-0.164;2022-12-18T07:02:23;101116.30;;;14.03;27.67
57452;BME280;66031;51.224;-0.164;2022-12-18T07:04:50;101113.12;;;14.19;27.59
57452;BME280;66031;51.224;-0.164;2022-12-18T07:07:14;101114.00;;;13.95;27.67
57452;BME280;66031;51.224;-0.164;2022-12-18T07:09:40;101111.59;;;14.23;27.51
57452;BME280;66031;51.224;-0.164;2022-12-18T07:12:05;101102.68;;;14.74;27.37
57452;BME280;66031;51.224;-0.164;2022-12-18T07:14:31;101092.69;;;14.73;27.47
57452;BME280;66031;51.224;-0.164;2022-12-18T07:16:57;101088.60;;;14.67;27.39
57452;BME280;66031;51.224;-0.164;2022-12-18T07:19:25;101087.83;;;14.73;27.41
57452;BME280;66031;51.224;-0.164;2022-12-18T07:21:47;101084.93;;;14.70;27.51
57452;BME280;66031;51.224;-0.164;2022-12-18T07:24:13;101083.97;;;14.87;27.45
57452;BME280;66031;51.224;-0.164;2022-12-18T07:26:39;101092.33;;;14.90;27.49
57452;BME280;66031;51.224;-0.164;2022-12-18T07:29:03;101091.17;;;14.78;27.44
57452;BME280;66031;51.224;-0.164;2022-12-18T07:31:30;101085.96;;;15.10;27.45
57452;BME280;66031;51.224;-0.164;2022-12-18T07:33:54;101081.74;;;14.76;27.33
57452;BME280;66031;51.224;-0.164;2022-12-18T07:36:24;101077.84;;;15.12;27.25
57452;BME280;66031;51.224;-0.164;2022-12-18T07:38:47;101073.05;;;15.28;27.14
57452;BME280;66031;51.224;-0.164;2022-12-18T07:41:12;101078.46;;;15.55;27.13
57452;BME280;66031;51.224;-0.164;2022-12-18T07:43:37;101075.25;;;15.21;27.02
57452;BME280;66031;51.224;-0.164;2022-12-18T07:46:03;101071.51;;;15.39;27.15
57452;BME280;66031;51.224;-0.164;2022-12-18T07:48:29;101065.14;;;15.45;27.08
57452;BME280;66031;51.224;-0.164;2022-12-18T07:50:53;101057.13;;;15.57;26.98
57452;BME280;66031;51.224;-0.164;2022-12-18T07:53:18;101052.55;;;15.70;27.07
57452;BME280;66031;51.224;-0.164;2022-12-18T07:55:44;101056.85;;;15.86;27.01
57452;BME280;66031;51.224;-0.164;2022-12-18T07:58:09;101055.48;;;15.50;27.11
57452;BME280;66031;51.224;-0.164;2022-12-18T08:00:36;101054.81;;;15.53;26.92
57452;BME280;66031;51.224;-0.164;2022-12-18T08:03:00;101053.09;;;15.49;26.95
57452;BME280;66031;51.224;-0.164;2022-12-18T08:05:26;101054.49;;;15.54;26.92
57452;BME280;66031;51.224;-0.164;2022-12-18T08:07:51;101054.11;;;15.53;26.92
57452;BME280;66031;51.224;-0.164;2022-12-18T08:10:17;101061.42;;;15.60;26.91
57452;BME280;66031;51.224;-0.164;2022-12-18T08:12:42;101062.35;;;15.60;26.91
57452;BME280;66031;51.224;-0.164;2022-12-18T08:15:08;101062.84;;;15.39;27.12
57452;BME280;66031;51.224;-0.164;2022-12-18T08:17:33;101068.65;;;15.61;26.96
57452;BME280;66031;51.224;-0.164;2022-12-18T08:19:59;101059.13;;;15.75;26.86
57452;BME280;66031;51.224;-0.164;2022-12-18T08:22:25;101053.83;;;15.75;26.86
57452;BME280;66031;51.224;-0.164;2022-12-18T08:24:50;101056.34;;;15.68;26.92
57452;BME280;66031;51.224;-0.164;2022-12-18T08:27:15;101057.11;;;15.72;26.90
57452;BME280;66031;51.224;-0.164;2022-12-18T08:29:40;101060.32;;;15.62;27.02
57452;BME280;66031;51.224;-0.164;2022-12-18T08:32:06;101062.65;;;15.77;26.92
57452;BME280;66031;51.224;-0.164;2022-12-18T08:34:31;101073.35;;;15.78;26.90
57452;BME280;66031;51.224;-0.164;2022-12-18T08:36:57;101072.39;;;15.51;26.91
57452;BME280;66031;51.224;-0.164;2022-12-18T08:39:22;101072.67;;;15.61;27.02
57452;BME280;66031;51.224;-0.164;2022-12-18T08:41:48;101081.70;;;15.68;27.20
57452;BME280;66031;51.224;-0.164;2022-12-18T08:44:13;101084.26;;;15.37;27.22
57452;BME280;66031;51.224;-0.164;2022-12-18T08:46:40;101081.41;;;15.21;27.35
57452;BME280;66031;51.224;-0.164;2022-12-18T08:49:05;101075.53;;;15.12;27.43
57452;BME280;66031;51.224;-0.164;2022-12-18T08:51:29;101074.54;;;15.58;27.42
57452;BME280;66031;51.224;-0.164;2022-12-18T08:53:55;101078.66;;;15.21;27.51
57452;BME280;66031;51.224;-0.164;2022-12-18T08:56:20;101079.00;;;14.90;27.56
57452;BME280;66031;51.224;-0.164;2022-12-18T08:58:46;101076.65;;;15.00;27.71
57452;BME280;66031;51.224;-0.164;2022-12-18T09:01:12;101073.15;;;15.23;27.71
57452;BME280;66031;51.224;-0.164;2022-12-18T09:03:37;101073.47;;;14.68;27.74
57452;BME280;66031;51.224;-0.164;2022-12-18T09:06:03;101072.74;;;14.58;27.84
57452;BME280;66031;51.224;-0.164;2022-12-18T09:08:28;101068.26;;;15.01;27.84
57452;BME280;66031;51.224;-0.164;2022-12-18T09:10:54;101067.99;;;15.16;27.94
57452;BME280;66031;51.224;-0.164;2022-12-18T09:13:19;101067.81;;;14.85;27.97
57452;BME280;66031;51.224;-0.164;2022-12-18T09:15:47;101056.46;;;14.71;28.09
57452;BME280;66031;51.224;-0.164;2022-12-18T09:18:10;101058.39;;;14.41;28.16
57452;BME280;66031;51.224;-0.164;2022-12-18T09:20:35;101060.77;;;14.61;28.19
57452;BME280;66031;51.224;-0.164;2022-12-18T09:23:01;101067.53;;;14.47;28.32
57452;BME280;66031;51.224;-0.164;2022-12-18T09:25:26;101064.86;;;14.41;28.38
57452;BME280;66031;51.224;-0.164;2022-12-18T09:27:51;101061.11;;;14.59;28.41
57452;BME280;66031;51.224;-0.164;2022-12-18T09:30:17;101064.63;;;14.06;28.45
57452;BME280;66031;51.224;-0.164;2022-12-18T09:32:43;101065.05;;;14.28;28.45
57452;BME280;66031;51.224;-0.164;2022-12-18T09:35:08;101066.41;;;14.24;28.49
57452;BME280;66031;51.224;-0.164;2022-12-18T09:37:34;101073.42;;;13.68;28.56
57452;BME280;66031;51.224;-0.164;2022-12-18T09:39:59;101081.46;;;14.15;28.55
57452;BME280;66031;51.224;-0.164;2022-12-18T09:42:25;101087.33;;;14.10;28.56
57452;BME280;66031;51.224;-0.164;2022-12-18T09:44:52;101091.07;;;14.27;28.59
57452;BME280;66031;51.224;-0.164;2022-12-18T09:47:19;101087.97;;;14.00;28.62
57452;BME280;66031;51.224;-0.164;2022-12-18T09:49:44;101076.63;;;14.20;28.62
57452;BME280;66031;51.224;-0.164;2022-12-18T09:54:46;101074.40;;;13.98;27.35
57452;BME280;66031;51.224;-0.164;2022-12-18T09:57:14;101075.96;;;14.95;26.98
57452;BME280;66031;51.224;-0.164;2022-12-18T09:59:36;101083.79;;;14.85;27.26
57452;BME280;66031;51.224;-0.164;2022-12-18T10:01:59;101081.75;;;14.61;27.76
57452;BME280;66031;51.224;-0.164;2022-12-18T10:04:24;101085.42;;;14.36;27.98
57452;BME280;66031;51.224;-0.164;2022-12-18T10:06:54;101087.73;;;14.23;28.09
57452;BME280;66031;51.224;-0.164;2022-12-18T10:09:24;101088.57;;;14.17;28.15
57452;BME280;66031;51.224;-0.164;2022-12-18T10:11:46;101087.42;;;14.13;28.15
57452;BME280;66031;51.224;-0.164;2022-12-18T10:14:12;101081.69;;;14.31;28.12
57452;BME280;66031;51.224;-0.164;2022-12-18T10:16:38;101075.41;;;14.23;28.22
57452;BME280;66031;51.224;-0.164;2022-12-18T10:19:06;101068.18;;;13.81;28.08
57452;BME280;66031;51.224;-0.164;2022-12-18T10:21:26;101071.17;;;13.97;28.16
57452;BME280;66031;51.224;-0.164;2022-12-18T10:23:54;101066.58;;;14.04;28.01
57452;BME280;66031;51.224;-0.164;2022-12-18T10:26:12;101065.00;;;14.28;28.04
57452;BME280;66031;51.224;-0.164;2022-12-18T10:28:40;101069.98;;;13.97;28.02
57452;BME280;66031;51.224;-0.164;2022-12-18T10:31:05;101067.22;;;14.12;28.06
57452;BME280;66031;51.224;-0.164;2022-12-18T10:33:30;101060.59;;;14.11;28.06
57452;BME280;66031;51.224;-0.164;2022-12-18T10:35:55;101058.56;;;14.38;27.99
57452;BME280;66031;51.224;-0.164;2022-12-18T10:38:22;101046.58;;;14.32;28.06
57452;BME280;66031;51.224;-0.164;2022-12-18T10:40:51;101030.79;;;13.87;28.04
57452;BME280;66031;51.224;-0.164;2022-12-18T10:43:13;101020.85;;;13.81;28.05
57452;BME280;66031;51.224;-0.164;2022-12-18T10:45:36;101015.31;;;13.84;28.02
57452;BME280;66031;51.224;-0.164;2022-12-18T10:48:03;101016.99;;;14.09;28.02
57452;BME280;66031;51.224;-0.164;2022-12-18T10:50:31;101011.04;;;14.05;28.02
57452;BME280;66031;51.224;-0.164;2022-12-18T10:52:56;101001.01;;;14.17;27.89
57452;BME280;66031;51.224;-0.164;2022-12-18T10:55:19;100996.52;;;13.81;27.98
57452;BME280;66031;51.224;-0.164;2022-12-18T10:57:44;100995.62;;;14.05;28.05
57452;BME280;66031;51.224;-0.164;2022-12-18T11:00:21;100985.85;;;13.90;28.21
57452;BME280;66031;51.224;-0.164;2022-12-18T11:02:36;100988.67;;;13.94;28.21
57452;BME280;66031;51.224;-0.164;2022-12-18T11:05:01;100995.00;;;13.90;28.18
57452;BME280;66031;51.224;-0.164;2022-12-18T11:12:18;100973.55;;;14.11;28.21
57452;BME280;66031;51.224;-0.164;2022-12-18T11:14:43;100974.58;;;13.89;28.23
57452;BME280;66031;51.224;-0.164;2022-12-18T11:17:18;100971.98;;;13.61;28.30
57452;BME280;66031;51.224;-0.164;2022-12-18T11:19:36;100973.14;;;14.11;28.24
57452;BME280;66031;51.224;-0.164;2022-12-18T11:21:58;100965.23;;;14.05;28.45
57452;BME280;66031;51.224;-0.164;2022-12-18T11:24:29;100961.65;;;13.79;28.38
57452;BME280;66031;51.224;-0.164;2022-12-18T11:26:50;100960.71;;;14.09;28.39
57452;BME280;66031;51.224;-0.164;2022-12-18T11:29:17;100956.73;;;13.81;28.36
57452;BME280;66031;51.224;-0.164;2022-12-18T11:31:40;100951.70;;;13.78;28.34
57452;BME280;66031;51.224;-0.164;2022-12-18T11:34:11;100953.57;;;13.75;28.39
57452;BME280;66031;51.224;-0.164;2022-12-18T11:36:33;100957.15;;;13.70;28.35
57452;BME280;66031;51.224;-0.164;2022-12-18T11:39:00;100958.38;;;13.71;28.27
57452;BME280;66031;51.224;-0.164;2022-12-18T11:41:25;100956.22;;;13.92;28.39
57452;BME280;66031;51.224;-0.164;2022-12-18T11:43:52;100951.01;;;13.88;28.47
57452;BME280;66031;51.224;-0.164;2022-12-18T11:46:18;100954.94;;;13.88;28.40
57452;BME280;66031;51.224;-0.164;2022-12-18T11:48:42;100946.79;;;13.86;28.35
57452;BME280;66031;51.224;-0.164;2022-12-18T11:51:08;100950.38;;;13.89;28.30
57452;BME280;66031;51.224;-0.164;2022-12-18T11:53:30;100952.88;;;13.94;28.26
57452;BME280;66031;51.224;-0.164;2022-12-18T11:56:02;100943.03;;;13.84;28.54
57452;BME280;66031;51.224;-0.164;2022-12-18T11:58:32;100939.13;;;13.76;28.55
57452;BME280;66031;51.224;-0.164;2022-12-18T12:00:50;100929.46;;;13.74;28.62
57452;BME280;66031;51.224;-0.164;2022-12-18T12:03:21;100926.87;;;13.81;28.58
57452;BME280;66031;51.224;-0.164;2022-12-18T12:05:44;100905.99;;;13.77;28.62
57452;BME280;66031;51.224;-0.164;2022-12-18T12:08:07;100890.35;;;13.80;28.51
57452;BME280;66031;51.224;-0.164;2022-12-18T12:10:38;100882.44;;;13.72;28.68
57452;BME280;66031;51.224;-0.164;2022-12-18T12:13:03;100877.04;;;13.50;28.51
57452;BME280;66031;51.224;-0.164;2022-12-18T12:15:27;100873.21;;;13.73;28.50
57452;BME280;66031;51.224;-0.164;2022-12-18T12:17:50;100864.69;;;13.56;28.57
57452;BME280;66031;51.224;-0.164;2022-12-18T12:20:15;100866.19;;;13.59;28.61
57452;BME280;66031;51.224;-0.164;2022-12-18T12:22:41;100852.04;;;13.75;28.62
57452;BME280;66031;51.224;-0.164;2022-12-18T12:25:11;100845.14;;;13.55;28.58
57452;BME280;66031;51.224;-0.164;2022-12-18T12:27:34;100834.42;;;13.71;28.61
57452;BME280;66031;51.224;-0.164;2022-12-18T12:30:00;100831.16;;;13.62;28.79
57452;BME280;66031;51.224;-0.164;2022-12-18T12:32:25;100830.53;;;13.52;28.84
57452;BME280;66031;51.224;-0.164;2022-12-18T12:34:49;100823.68;;;13.66;28.81
57452;BME280;66031;51.224;-0.164;2022-12-18T12:37:19;100816.06;;;13.64;28.72